Startpagina
METAR-TAF:

METAR-TAF

Vliegvelden :

Rijsel, Frankrijk

Aéroport de Lille-Lesquin

breedte: 50-34N, lengte: 003-06E, hoogte: 48 m

Actueel weer

Dit bericht is 10 minuten geleden gemaakt, om 11:00 UTC
Wind 10 kt uit het oostzuidoosten, variërend tussen het oostnoordoosten en het zuidoosten
Temperatuur 25°C
Vochtigheid 41%
Druk 1019 hPa
Zicht 10 km of meer
geen wolken onder 1500 m en geen cumulonimbus

METAR: LFQQ 261100Z AUTO 11010KT 070V140 CAVOK 25/11 Q1019 NOSIG

Tijdstip: 13:10 (11:10 UTC)

Verwachting

Dit bericht is 6 uur en het 10 minuten geleden gemaakt, om 05:00 UTC
Verwachting geldig van 26 om 06 UTC tot 27 om 12 UTC
Wind 8 kt uit het oosten
Zicht 10 km of meer
geen wolken onder 1500 m en geen cumulonimbus
Wijzigt naar
van 27 om 06 UTC tot 27 om 10 UTC
Wind 10 kt uit het zuidzuidoosten

TAF: LFQQ 260500Z 2606/2712 08008KT CAVOK BECMG 2706/2710 16010KT

Waarnemingen en weersverwachtingen van meer dan 4000 vliegvelden (METAR en TAF).

De beschikbare stations zijn de gele en rode punten op de kaart.

Ga met uw muis naar het station om de naam te zien.

Klik dan om waarnemingen en weersverwachtingen te zien.

kaart wijzigen: klik op de groene knoppen met een zwart kruis om in te zoomen, op de groene knop met een streepje om uit te zoomen of op de groene pijlen voor aangrenzende kaarten.


METAR-TAF: